createdAt,value
2019-03-25T00:02:32.237Z,99.60
2019-03-25T00:05:04.844Z,99.40
2019-03-25T00:07:37.497Z,99.40
2019-03-25T00:10:10.113Z,99.50
2019-03-25T00:12:42.538Z,99.70
2019-03-25T00:15:15.242Z,99.60
2019-03-25T00:17:47.814Z,99.50
2019-03-25T00:20:20.540Z,99.40
2019-03-25T00:22:53.598Z,99.20
2019-03-25T00:25:26.335Z,99.20
2019-03-25T00:27:59.101Z,98.90
2019-03-25T00:30:31.515Z,99.40
2019-03-25T00:33:04.385Z,98.80
2019-03-25T00:35:37.195Z,98.70
2019-03-25T00:38:09.943Z,98.80
2019-03-25T00:40:42.363Z,98.20
2019-03-25T00:43:14.898Z,98.50
2019-03-25T00:45:47.320Z,98.00
2019-03-25T00:48:19.743Z,98.30
2019-03-25T00:50:52.383Z,97.80
2019-03-25T00:53:24.997Z,97.60
2019-03-25T00:55:57.481Z,97.60
2019-03-25T00:58:30.180Z,97.20
2019-03-25T01:01:02.878Z,96.70
2019-03-25T01:03:35.853Z,96.80
2019-03-25T01:06:08.578Z,96.50
2019-03-25T01:08:40.808Z,96.30
2019-03-25T01:11:13.672Z,96.60
2019-03-25T01:13:46.451Z,95.90
2019-03-25T01:16:19.188Z,96.20
2019-03-25T01:18:51.634Z,95.80
2019-03-25T01:21:24.077Z,95.30
2019-03-25T01:23:56.512Z,95.30
2019-03-25T01:26:29.212Z,95.50
2019-03-25T01:29:01.594Z,95.80
2019-03-25T01:31:34.247Z,95.80
2019-03-25T01:34:06.608Z,95.40
2019-03-25T01:36:39.426Z,95.00
2019-03-25T01:39:11.755Z,94.70
2019-03-25T01:41:44.279Z,94.40
2019-03-25T01:44:17.080Z,93.90
2019-03-25T01:46:49.781Z,93.90
2019-03-25T01:49:22.260Z,93.70
2019-03-25T01:51:54.755Z,94.10
2019-03-25T01:54:27.389Z,93.70
2019-03-25T01:57:00.188Z,94.20
2019-03-25T01:59:32.741Z,93.50
2019-03-25T02:02:05.510Z,92.70
2019-03-25T02:04:37.781Z,93.00
2019-03-25T02:07:10.233Z,92.60
2019-03-25T02:09:42.745Z,92.30
2019-03-25T02:12:15.641Z,92.40
2019-03-25T02:14:47.990Z,92.20
2019-03-25T02:17:20.427Z,92.30
2019-03-25T02:19:52.905Z,91.90
2019-03-25T02:22:25.646Z,91.90
2019-03-25T02:24:58.457Z,91.40
2019-03-25T02:27:30.951Z,91.20
2019-03-25T02:30:05.309Z,90.90
2019-03-25T02:32:37.795Z,90.90
2019-03-25T02:35:10.299Z,90.60
2019-03-25T02:37:43.787Z,90.30
2019-03-25T02:40:16.263Z,89.60
2019-03-25T02:42:48.691Z,89.90
2019-03-25T02:45:21.044Z,90.00
2019-03-25T02:47:53.916Z,91.30
2019-03-25T02:50:26.642Z,91.00
2019-03-25T02:52:59.299Z,90.30
2019-03-25T02:55:41.606Z,89.20
2019-03-25T02:58:05.735Z,90.00
2019-03-25T03:00:39.863Z,89.20
2019-03-25T03:03:12.421Z,87.40
2019-03-25T03:05:44.942Z,86.80
2019-03-25T03:08:17.248Z,85.40
2019-03-25T03:10:50.964Z,85.20
2019-03-25T03:13:24.440Z,85.50
2019-03-25T03:15:56.958Z,84.90
2019-03-25T03:18:29.196Z,84.00
2019-03-25T03:21:01.780Z,82.40
2019-03-25T03:23:34.374Z,82.10
2019-03-25T03:26:06.632Z,81.90
2019-03-25T03:28:39.154Z,82.50
2019-03-25T03:31:11.819Z,82.90
2019-03-25T03:33:44.541Z,83.60
2019-03-25T03:36:17.031Z,82.00
2019-03-25T03:38:49.642Z,81.40
2019-03-25T03:41:22.048Z,81.00
2019-03-25T03:43:54.799Z,81.40
2019-03-25T03:46:27.230Z,80.80
2019-03-25T03:49:00.041Z,82.20
2019-03-25T03:51:32.362Z,81.20
2019-03-25T03:54:05.238Z,78.80
2019-03-25T03:56:37.937Z,79.50
2019-03-25T03:59:10.683Z,79.90
2019-03-25T04:01:42.887Z,81.00
2019-03-25T04:04:15.439Z,80.50
2019-03-25T04:06:47.834Z,80.20
2019-03-25T04:09:20.364Z,78.70
2019-03-25T04:11:52.566Z,77.10
2019-03-25T04:14:25.167Z,78.00
2019-03-25T04:16:57.490Z,78.50
2019-03-25T04:19:30.540Z,76.50
2019-03-25T04:22:04.086Z,77.00
2019-03-25T04:24:36.674Z,77.30
2019-03-25T04:27:09.074Z,77.90
2019-03-25T04:29:41.248Z,75.60
2019-03-25T04:32:13.769Z,76.00
2019-03-25T04:34:47.596Z,77.80
2019-03-25T04:37:20.006Z,75.20
2019-03-25T04:39:52.508Z,74.10
2019-03-25T04:42:25.029Z,75.00
2019-03-25T04:44:57.760Z,74.40
2019-03-25T04:47:30.243Z,75.00
2019-03-25T04:50:02.974Z,75.60
2019-03-25T04:52:35.349Z,73.20
2019-03-25T04:55:08.651Z,73.00
2019-03-25T04:57:41.030Z,72.00
2019-03-25T05:00:14.640Z,73.30
2019-03-25T05:02:47.046Z,71.60
2019-03-25T05:05:20.028Z,71.40
2019-03-25T05:07:52.601Z,71.70
2019-03-25T05:10:25.317Z,71.00
2019-03-25T05:12:57.829Z,70.30
2019-03-25T05:15:31.589Z,71.10
2019-03-25T05:18:04.020Z,76.00
2019-03-25T05:20:36.664Z,73.50
2019-03-25T05:23:09.009Z,72.90
2019-03-25T05:25:41.707Z,71.20
2019-03-25T05:28:14.266Z,69.50
2019-03-25T05:30:47.008Z,72.50
2019-03-25T05:33:19.729Z,70.50
2019-03-25T05:35:52.389Z,71.90
2019-03-25T05:38:24.973Z,71.20
2019-03-25T05:40:58.012Z,72.30
2019-03-25T05:43:30.774Z,68.90
2019-03-25T05:46:03.647Z,67.50
2019-03-25T05:48:36.669Z,66.60
2019-03-25T05:51:09.357Z,68.90
2019-03-25T05:53:42.705Z,68.00
2019-03-25T05:56:15.328Z,67.80
2019-03-25T05:58:47.634Z,69.30
2019-03-25T06:01:20.910Z,67.30
2019-03-25T06:03:53.632Z,69.20
2019-03-25T06:06:26.415Z,69.90
2019-03-25T06:08:58.932Z,68.50
2019-03-25T06:11:31.696Z,66.30
2019-03-25T06:14:04.306Z,64.50
2019-03-25T06:16:37.052Z,64.40
2019-03-25T06:19:09.463Z,65.00
2019-03-25T06:21:42.313Z,64.20
2019-03-25T06:24:15.261Z,64.30
2019-03-25T06:26:47.878Z,66.50
2019-03-25T06:29:20.265Z,64.90
2019-03-25T06:31:54.402Z,63.90
2019-03-25T06:34:26.878Z,63.20
2019-03-25T06:36:59.284Z,62.90
2019-03-25T06:39:31.769Z,62.90
2019-03-25T06:42:04.202Z,64.70
2019-03-25T06:44:36.782Z,64.50
2019-03-25T06:47:09.364Z,63.40
2019-03-25T06:49:41.949Z,61.40
2019-03-25T06:52:14.690Z,62.50
2019-03-25T06:54:47.492Z,61.80
2019-03-25T06:57:25.499Z,61.70
2019-03-25T06:59:54.283Z,61.30
2019-03-25T07:02:26.656Z,60.00
2019-03-25T07:04:59.023Z,61.90
2019-03-25T07:07:32.253Z,62.40
2019-03-25T07:10:04.996Z,62.80
2019-03-25T07:12:38.547Z,62.90
2019-03-25T07:15:12.202Z,63.50
2019-03-25T07:17:45.018Z,61.30
2019-03-25T07:20:17.748Z,61.10
2019-03-25T07:22:50.192Z,63.70
2019-03-25T07:25:23.271Z,61.50
2019-03-25T07:27:55.850Z,61.70
2019-03-25T07:30:28.276Z,61.00
2019-03-25T07:33:00.851Z,60.90
2019-03-25T07:35:33.235Z,62.40
2019-03-25T07:38:05.826Z,62.80
2019-03-25T07:40:38.037Z,63.60
2019-03-25T07:43:10.693Z,63.30
2019-03-25T07:45:43.803Z,63.80
2019-03-25T07:48:16.099Z,64.30
2019-03-25T07:50:48.877Z,64.90
2019-03-25T07:53:21.877Z,62.90
2019-03-25T07:55:54.789Z,63.70
2019-03-25T07:58:27.446Z,63.30
2019-03-25T08:01:00.324Z,62.00
2019-03-25T08:03:32.701Z,61.10
2019-03-25T08:06:05.228Z,62.50
2019-03-25T08:08:39.609Z,60.50
2019-03-25T08:11:11.611Z,60.90
2019-03-25T08:13:44.312Z,61.70
2019-03-25T08:16:16.645Z,61.90
2019-03-25T08:18:49.555Z,62.70
2019-03-25T08:21:21.929Z,61.10
2019-03-25T08:23:54.743Z,62.40
2019-03-25T08:26:27.052Z,61.10
2019-03-25T08:29:00.067Z,61.00
2019-03-25T08:31:32.564Z,61.20
2019-03-25T08:34:04.949Z,60.60
2019-03-25T08:36:37.285Z,59.40
2019-03-25T08:39:09.944Z,60.10
2019-03-25T08:41:42.090Z,59.90
2019-03-25T08:44:15.148Z,58.70
2019-03-25T08:46:48.645Z,59.10
2019-03-25T08:49:21.145Z,59.30
2019-03-25T08:51:53.677Z,59.20
2019-03-25T08:54:26.647Z,59.00
2019-03-25T08:56:58.859Z,59.80
2019-03-25T08:59:31.390Z,61.00
2019-03-25T09:02:03.822Z,61.00
2019-03-25T09:04:36.285Z,59.90
2019-03-25T09:07:08.693Z,59.80
2019-03-25T09:09:42.148Z,59.60
2019-03-25T09:12:14.481Z,60.60
2019-03-25T09:14:47.195Z,62.10
2019-03-25T09:17:20.039Z,62.10
2019-03-25T09:19:53.669Z,60.30
2019-03-25T09:22:26.202Z,61.30
2019-03-25T09:24:58.906Z,60.80
2019-03-25T09:27:33.997Z,60.80
2019-03-25T09:30:08.322Z,60.10
2019-03-25T09:32:40.657Z,60.00
2019-03-25T09:35:13.529Z,60.50
2019-03-25T09:37:45.980Z,60.90
2019-03-25T09:40:18.735Z,61.50
2019-03-25T09:42:51.450Z,61.20
2019-03-25T09:45:24.255Z,61.40
2019-03-25T09:47:56.615Z,62.10
2019-03-25T09:50:29.113Z,63.20
2019-03-25T09:53:01.389Z,63.20
2019-03-25T09:55:33.874Z,61.80
2019-03-25T09:58:06.592Z,62.90
2019-03-25T10:00:39.364Z,62.60
2019-03-25T10:03:11.687Z,62.80
2019-03-25T10:05:44.301Z,62.90
2019-03-25T10:08:16.625Z,62.80
2019-03-25T10:10:49.129Z,62.10
2019-03-25T10:13:21.531Z,62.50
2019-03-25T10:15:54.521Z,62.50
2019-03-25T10:18:26.864Z,62.90
2019-03-25T10:20:59.475Z,64.20
2019-03-25T10:23:32.108Z,63.80
2019-03-25T10:26:05.374Z,63.50
2019-03-25T10:28:47.909Z,63.60
2019-03-25T10:31:11.601Z,64.00
2019-03-25T10:33:44.073Z,64.80
2019-03-25T10:36:16.893Z,68.70
2019-03-25T10:38:49.179Z,71.40
2019-03-25T10:41:21.910Z,72.40
2019-03-25T10:43:54.504Z,72.80
2019-03-25T10:46:27.352Z,73.00
2019-03-25T10:48:59.676Z,73.50
2019-03-25T10:51:32.745Z,73.90
2019-03-25T10:54:05.223Z,74.10
2019-03-25T10:56:37.978Z,74.30
2019-03-25T10:59:11.400Z,74.70
2019-03-25T11:01:43.981Z,75.10
2019-03-25T11:04:16.359Z,75.30
2019-03-25T11:06:49.212Z,75.10
2019-03-25T11:09:21.607Z,75.40
2019-03-25T11:11:54.614Z,76.10
2019-03-25T11:14:26.944Z,75.70
2019-03-25T11:16:59.279Z,75.80
2019-03-25T11:19:31.919Z,76.20
2019-03-25T11:22:05.118Z,75.80
2019-03-25T11:24:37.537Z,76.10
2019-03-25T11:27:10.174Z,76.30
2019-03-25T11:29:42.534Z,76.10
2019-03-25T11:32:15.345Z,76.50
2019-03-25T11:34:47.837Z,76.70
2019-03-25T11:37:21.649Z,77.20
2019-03-25T11:39:54.029Z,77.50
2019-03-25T11:42:26.787Z,77.40
2019-03-25T11:44:59.356Z,77.70
2019-03-25T11:47:31.970Z,77.90
2019-03-25T11:50:05.243Z,78.30
2019-03-25T11:52:37.991Z,78.40
2019-03-25T11:55:10.695Z,78.50
2019-03-25T11:57:43.264Z,78.60
2019-03-25T12:00:16.152Z,78.90
2019-03-25T12:02:48.541Z,79.10
2019-03-25T12:05:20.838Z,79.10
2019-03-25T12:07:53.858Z,79.40
2019-03-25T12:10:26.344Z,79.30
2019-03-25T12:12:58.979Z,79.30
2019-03-25T12:15:31.359Z,79.50
2019-03-25T12:18:04.116Z,79.60
2019-03-25T12:20:36.614Z,79.60
2019-03-25T12:23:08.963Z,79.60
2019-03-25T12:25:41.512Z,79.80
2019-03-25T12:28:14.070Z,79.70
2019-03-25T12:30:46.742Z,79.90
2019-03-25T12:33:19.148Z,80.10
2019-03-25T12:35:51.673Z,80.60
2019-03-25T12:38:23.990Z,80.60
2019-03-25T12:40:56.758Z,81.10
2019-03-25T12:43:29.138Z,81.80
2019-03-25T12:46:02.019Z,82.00
2019-03-25T12:48:34.632Z,82.10
2019-03-25T12:51:07.336Z,81.80
2019-03-25T12:53:39.677Z,81.60
2019-03-25T12:56:12.302Z,81.20
2019-03-25T12:58:44.931Z,81.50
2019-03-25T13:01:17.416Z,81.10
2019-03-25T13:03:49.723Z,81.00
2019-03-25T13:06:22.150Z,82.00
2019-03-25T13:08:54.665Z,82.50
2019-03-25T13:11:27.177Z,83.20
2019-03-25T13:13:59.826Z,84.00
2019-03-25T13:16:32.596Z,84.50
2019-03-25T13:19:05.087Z,84.20
2019-03-25T13:21:38.679Z,85.20
2019-03-25T13:24:12.112Z,85.60
2019-03-25T13:26:44.538Z,85.80
2019-03-25T13:29:17.540Z,85.70
2019-03-25T13:31:49.761Z,85.90
2019-03-25T13:34:22.094Z,86.10
2019-03-25T13:36:54.430Z,86.30
2019-03-25T13:39:27.027Z,86.50
2019-03-25T13:42:00.024Z,86.60
2019-03-25T13:44:32.525Z,86.70
2019-03-25T13:47:04.959Z,86.80
2019-03-25T13:49:37.524Z,87.00
2019-03-25T13:52:09.864Z,87.80
2019-03-25T13:54:42.498Z,87.30
2019-03-25T13:57:14.865Z,87.70
2019-03-25T13:59:48.539Z,87.80
2019-03-25T14:02:21.034Z,87.90
2019-03-25T14:04:53.421Z,88.30
2019-03-25T14:07:25.738Z,88.40
2019-03-25T14:09:58.603Z,89.10
2019-03-25T14:12:31.095Z,88.90
2019-03-25T14:15:03.897Z,88.90
2019-03-25T14:17:36.406Z,89.20
2019-03-25T14:20:10.255Z,89.30
2019-03-25T14:22:43.265Z,89.20
2019-03-25T14:25:15.919Z,89.60
2019-03-25T14:27:48.238Z,89.50
2019-03-25T14:30:20.784Z,89.80
2019-03-25T14:32:53.722Z,89.90
2019-03-25T14:35:26.637Z,89.80
2019-03-25T14:37:59.179Z,89.80
2019-03-25T14:40:31.857Z,89.70
2019-03-25T14:43:04.779Z,90.00
2019-03-25T14:45:38.064Z,90.10
2019-03-25T14:48:10.599Z,89.90
2019-03-25T14:50:43.110Z,90.40
2019-03-25T14:53:15.920Z,90.20
2019-03-25T14:55:48.695Z,90.20
2019-03-25T14:58:21.292Z,90.50
2019-03-25T15:00:53.891Z,90.50
2019-03-25T15:03:26.277Z,90.40
2019-03-25T15:05:58.991Z,90.40
2019-03-25T15:08:31.676Z,90.80
2019-03-25T15:11:04.505Z,91.20
2019-03-25T15:13:36.989Z,91.00
2019-03-25T15:16:09.473Z,90.70
2019-03-25T15:18:41.748Z,90.90
2019-03-25T15:21:14.408Z,90.70
2019-03-25T15:23:46.741Z,90.80
2019-03-25T15:26:19.339Z,91.00
2019-03-25T15:28:51.906Z,90.90
2019-03-25T15:31:24.610Z,90.90
2019-03-25T15:33:56.934Z,91.30
2019-03-25T15:36:29.660Z,91.80
2019-03-25T15:39:02.137Z,92.10
2019-03-25T15:41:35.894Z,92.00
2019-03-25T15:44:08.592Z,91.70
2019-03-25T15:46:41.162Z,91.60
2019-03-25T15:49:13.747Z,91.60
2019-03-25T15:51:46.287Z,91.70
2019-03-25T15:54:19.121Z,91.70
2019-03-25T15:56:51.749Z,91.70
2019-03-25T15:59:24.440Z,91.80
2019-03-25T16:01:57.061Z,92.00
2019-03-25T16:04:29.836Z,92.10
2019-03-25T16:07:02.410Z,92.20
2019-03-25T16:09:35.043Z,92.40
2019-03-25T16:12:07.563Z,92.40
2019-03-25T16:14:40.083Z,92.30
2019-03-25T16:17:12.483Z,92.40
2019-03-25T16:19:45.385Z,92.40
2019-03-25T16:22:17.937Z,92.50
2019-03-25T16:24:50.961Z,92.50
2019-03-25T16:27:23.441Z,92.60
2019-03-25T16:29:56.208Z,92.50
2019-03-25T16:32:28.522Z,92.50
2019-03-25T16:35:01.188Z,92.70
2019-03-25T16:37:34.573Z,92.80
2019-03-25T16:40:08.861Z,92.80
2019-03-25T16:42:41.192Z,93.00
2019-03-25T16:45:14.043Z,93.00
2019-03-25T16:47:46.451Z,92.90
2019-03-25T16:50:19.068Z,92.90
2019-03-25T16:52:51.684Z,92.80
2019-03-25T16:55:24.163Z,93.00
2019-03-25T16:57:56.579Z,93.20
2019-03-25T17:00:29.482Z,93.20
2019-03-25T17:03:01.845Z,93.30
2019-03-25T17:05:34.340Z,93.20
2019-03-25T17:08:07.111Z,93.20
2019-03-25T17:10:39.843Z,93.30
2019-03-25T17:13:12.305Z,93.40
2019-03-25T17:15:44.627Z,93.60
2019-03-25T17:18:16.946Z,93.80
2019-03-25T17:20:50.000Z,94.10
2019-03-25T17:23:22.668Z,94.20
2019-03-25T17:25:55.462Z,94.30
2019-03-25T17:28:27.888Z,94.40
2019-03-25T17:31:02.976Z,94.60
2019-03-25T17:33:34.240Z,94.90
2019-03-25T17:36:07.179Z,94.60
2019-03-25T17:38:39.268Z,94.60
2019-03-25T17:41:12.165Z,94.70
2019-03-25T17:43:44.604Z,94.90
2019-03-25T17:46:16.970Z,95.10
2019-03-25T17:48:49.295Z,95.10
2019-03-25T17:51:22.030Z,95.30
2019-03-25T17:53:54.508Z,95.50
2019-03-25T17:56:28.375Z,95.60
2019-03-25T17:59:02.756Z,95.50
2019-03-25T18:01:35.789Z,95.70
2019-03-25T18:04:08.544Z,95.80
2019-03-25T18:06:41.011Z,96.00
2019-03-25T18:09:13.678Z,96.20
2019-03-25T18:11:46.468Z,95.80
2019-03-25T18:14:19.264Z,95.60
2019-03-25T18:16:52.155Z,95.80
2019-03-25T18:19:24.647Z,95.80
2019-03-25T18:21:56.955Z,95.80
2019-03-25T18:24:30.136Z,96.10
2019-03-25T18:27:02.531Z,96.40
2019-03-25T18:29:35.513Z,96.00
2019-03-25T18:32:08.004Z,95.90
2019-03-25T18:34:40.563Z,95.80
2019-03-25T18:37:13.157Z,95.70
2019-03-25T18:39:45.301Z,95.80
2019-03-25T18:42:17.748Z,96.00
2019-03-25T18:44:50.475Z,96.00
2019-03-25T18:47:22.978Z,95.90
2019-03-25T18:49:55.720Z,96.20
2019-03-25T18:52:28.181Z,96.00
2019-03-25T18:55:01.016Z,95.80
2019-03-25T18:57:33.393Z,96.10
2019-03-25T19:00:09.236Z,96.00
2019-03-25T19:02:41.582Z,96.00
2019-03-25T19:05:14.213Z,96.00
2019-03-25T19:07:47.879Z,96.60
2019-03-25T19:10:22.740Z,96.40
2019-03-25T19:12:55.231Z,96.40
2019-03-25T19:15:27.986Z,96.40
2019-03-25T19:18:00.511Z,96.30
2019-03-25T19:20:33.655Z,96.50
2019-03-25T19:23:06.113Z,96.50
2019-03-25T19:25:38.829Z,96.10
2019-03-25T19:28:11.376Z,95.90
2019-03-25T19:30:43.918Z,96.30
2019-03-25T19:33:16.341Z,96.50
2019-03-25T19:35:47.861Z,96.70
2019-03-25T19:38:20.505Z,96.40
2019-03-25T19:40:53.051Z,97.00
2019-03-25T19:43:25.716Z,97.50
2019-03-25T19:45:59.424Z,97.30
2019-03-25T19:48:32.100Z,97.00
2019-03-25T19:51:04.539Z,96.60
2019-03-25T19:53:36.980Z,97.00
2019-03-25T19:56:09.564Z,97.30
2019-03-25T19:58:42.239Z,97.00
2019-03-25T20:01:14.689Z,97.00
2019-03-25T20:03:48.078Z,97.10
2019-03-25T20:06:26.097Z,97.30
2019-03-25T20:08:54.480Z,97.40
2019-03-25T20:11:27.059Z,97.20
2019-03-25T20:13:59.706Z,97.20
2019-03-25T20:16:32.122Z,97.30
2019-03-25T20:19:05.195Z,98.10
2019-03-25T20:21:37.861Z,97.90
2019-03-25T20:24:11.254Z,97.80
2019-03-25T20:26:43.920Z,97.50
2019-03-25T20:29:16.338Z,97.40
2019-03-25T20:31:49.294Z,97.30
2019-03-25T20:34:21.779Z,97.20
2019-03-25T20:36:54.649Z,97.10
2019-03-25T20:39:27.207Z,97.50
2019-03-25T20:41:59.917Z,97.90
2019-03-25T20:44:32.841Z,98.30
2019-03-25T20:47:05.336Z,98.10
2019-03-25T20:49:37.770Z,97.50
2019-03-25T20:52:10.662Z,97.50
2019-03-25T20:54:43.924Z,97.60
2019-03-25T20:57:16.738Z,97.50
2019-03-25T20:59:49.029Z,97.60
2019-03-25T21:02:21.749Z,98.10
2019-03-25T21:04:54.144Z,98.00
2019-03-25T21:07:26.788Z,97.90
2019-03-25T21:09:59.549Z,98.00
2019-03-25T21:12:32.123Z,98.30
2019-03-25T21:15:06.265Z,98.50
2019-03-25T21:17:38.786Z,98.60
2019-03-25T21:20:11.655Z,98.70
2019-03-25T21:22:43.935Z,99.10
2019-03-25T21:25:16.838Z,99.50
2019-03-25T21:27:49.440Z,99.50
2019-03-25T21:30:22.460Z,99.90
2019-03-25T21:32:58.466Z,99.90
2019-03-25T21:35:29.134Z,99.50
2019-03-25T21:38:01.600Z,99.20
2019-03-25T21:40:34.415Z,99.30
2019-03-25T21:43:06.958Z,99.30
2019-03-25T21:45:39.487Z,99.60
2019-03-25T21:48:12.093Z,99.80
2019-03-25T21:50:44.601Z,99.80
2019-03-25T21:53:18.369Z,99.60
2019-03-25T21:55:52.099Z,99.40
2019-03-25T21:58:24.657Z,99.20
2019-03-25T22:00:57.864Z,99.00
2019-03-25T22:03:30.327Z,99.10
2019-03-25T22:06:02.919Z,99.10
2019-03-25T22:08:35.529Z,99.10
2019-03-25T22:11:08.412Z,99.30
2019-03-25T22:13:41.021Z,99.20
2019-03-25T22:16:13.408Z,99.10
2019-03-25T22:18:45.888Z,99.20
2019-03-25T22:21:18.200Z,99.30
2019-03-25T22:23:53.579Z,99.50
2019-03-25T22:26:24.458Z,99.50
2019-03-25T22:28:58.166Z,99.70
2019-03-25T22:31:30.506Z,99.70
2019-03-25T22:34:03.034Z,99.80
2019-03-25T22:36:35.430Z,99.80
2019-03-25T22:39:09.130Z,99.80
2019-03-25T22:41:41.318Z,99.80
2019-03-25T22:44:14.315Z,99.90
2019-03-25T22:46:46.754Z,99.90
2019-03-25T22:49:19.304Z,99.90
2019-03-25T22:51:51.741Z,99.90
2019-03-25T22:54:24.277Z,99.90
2019-03-25T22:56:56.690Z,99.90
2019-03-25T22:59:29.319Z,99.90
2019-03-25T23:02:02.025Z,99.90
2019-03-25T23:04:34.620Z,99.90
2019-03-25T23:07:07.034Z,99.90
2019-03-25T23:09:39.793Z,99.90
2019-03-25T23:12:12.283Z,99.90
2019-03-25T23:14:44.981Z,99.90
2019-03-25T23:17:17.545Z,99.90
2019-03-25T23:19:49.979Z,99.90
2019-03-25T23:22:22.612Z,99.90
2019-03-25T23:24:56.269Z,99.90
2019-03-25T23:27:29.410Z,99.90
2019-03-25T23:30:02.789Z,99.90
2019-03-25T23:32:35.516Z,99.90
2019-03-25T23:35:08.834Z,99.90
2019-03-25T23:37:41.481Z,99.90
2019-03-25T23:40:14.347Z,99.90
2019-03-25T23:42:46.581Z,99.90
2019-03-25T23:45:19.236Z,99.90
2019-03-25T23:47:51.802Z,99.90
2019-03-25T23:50:25.079Z,99.90
2019-03-25T23:52:57.625Z,99.90
2019-03-25T23:55:31.036Z,99.90
2019-03-25T23:58:03.506Z,99.90
